sensor_id;sensor_type;location;lat;lon;timestamp;temperature;humidity
7822;DHT22;3956;50.558;9.678;2022-07-22T00:01:57;18.20;99.90
7822;DHT22;3956;50.558;9.678;2022-07-22T00:04:26;18.10;99.90
7822;DHT22;3956;50.558;9.678;2022-07-22T00:06:54;18.10;99.90
7822;DHT22;3956;50.558;9.678;2022-07-22T00:09:24;18.20;99.90
7822;DHT22;3956;50.558;9.678;2022-07-22T00:11:52;18.20;99.90
7822;DHT22;3956;50.558;9.678;2022-07-22T00:14:21;18.10;99.90
7822;DHT22;3956;50.558;9.678;2022-07-22T00:16:51;18.20;99.90
7822;DHT22;3956;50.558;9.678;2022-07-22T00:19:21;18.10;99.90
7822;DHT22;3956;50.558;9.678;2022-07-22T00:21:51;18.20;99.90
7822;DHT22;3956;50.558;9.678;2022-07-22T00:24:21;18.30;99.90
7822;DHT22;3956;50.558;9.678;2022-07-22T00:26:49;18.30;99.90
7822;DHT22;3956;50.558;9.678;2022-07-22T00:29:17;18.30;99.90
7822;DHT22;3956;50.558;9.678;2022-07-22T00:31:45;18.20;99.90
7822;DHT22;3956;50.558;9.678;2022-07-22T00:34:14;18.10;99.90
7822;DHT22;3956;50.558;9.678;2022-07-22T00:36:42;18.10;99.90
7822;DHT22;3956;50.558;9.678;2022-07-22T00:39:12;18.00;99.90
7822;DHT22;3956;50.558;9.678;2022-07-22T00:41:43;18.10;99.90
7822;DHT22;3956;50.558;9.678;2022-07-22T00:44:18;18.20;99.90
7822;DHT22;3956;50.558;9.678;2022-07-22T00:46:48;18.20;99.90
7822;DHT22;3956;50.558;9.678;2022-07-22T00:49:18;18.30;99.90
7822;DHT22;3956;50.558;9.678;2022-07-22T00:51:54;18.20;99.90
7822;DHT22;3956;50.558;9.678;2022-07-22T00:54:28;18.20;99.90
7822;DHT22;3956;50.558;9.678;2022-07-22T00:56:59;18.20;99.90
7822;DHT22;3956;50.558;9.678;2022-07-22T00:59:31;18.40;99.90
7822;DHT22;3956;50.558;9.678;2022-07-22T01:02:00;18.40;99.90
7822;DHT22;3956;50.558;9.678;2022-07-22T01:04:31;18.30;99.90
7822;DHT22;3956;50.558;9.678;2022-07-22T01:07:00;18.20;99.90
7822;DHT22;3956;50.558;9.678;2022-07-22T01:09:30;18.10;99.90
7822;DHT22;3956;50.558;9.678;2022-07-22T01:11:59;18.20;99.90
7822;DHT22;3956;50.558;9.678;2022-07-22T01:14:29;18.20;99.90
7822;DHT22;3956;50.558;9.678;2022-07-22T01:16:59;18.30;99.90
7822;DHT22;3956;50.558;9.678;2022-07-22T01:19:36;18.30;99.90
7822;DHT22;3956;50.558;9.678;2022-07-22T01:22:06;18.30;99.90
7822;DHT22;3956;50.558;9.678;2022-07-22T01:24:35;18.20;99.90
7822;DHT22;3956;50.558;9.678;2022-07-22T01:27:03;18.10;99.90
7822;DHT22;3956;50.558;9.678;2022-07-22T01:29:37;18.10;99.90
7822;DHT22;3956;50.558;9.678;2022-07-22T01:32:10;18.00;99.90
7822;DHT22;3956;50.558;9.678;2022-07-22T01:34:39;17.90;99.90
7822;DHT22;3956;50.558;9.678;2022-07-22T01:37:11;17.90;99.90
7822;DHT22;3956;50.558;9.678;2022-07-22T01:39:40;17.80;99.90
7822;DHT22;3956;50.558;9.678;2022-07-22T01:42:10;17.80;99.90
7822;DHT22;3956;50.558;9.678;2022-07-22T01:44:42;17.70;99.90
7822;DHT22;3956;50.558;9.678;2022-07-22T01:47:10;17.70;99.90
7822;DHT22;3956;50.558;9.678;2022-07-22T01:49:40;17.90;99.90
7822;DHT22;3956;50.558;9.678;2022-07-22T01:52:08;18.00;99.90
7822;DHT22;3956;50.558;9.678;2022-07-22T01:54:40;18.00;99.90
7822;DHT22;3956;50.558;9.678;2022-07-22T01:57:11;17.90;99.90
7822;DHT22;3956;50.558;9.678;2022-07-22T01:59:41;18.00;99.90
7822;DHT22;3956;50.558;9.678;2022-07-22T02:02:13;18.00;99.90
7822;DHT22;3956;50.558;9.678;2022-07-22T02:04:42;18.10;99.90
7822;DHT22;3956;50.558;9.678;2022-07-22T02:07:11;18.10;99.90
7822;DHT22;3956;50.558;9.678;2022-07-22T02:09:42;18.20;99.90
7822;DHT22;3956;50.558;9.678;2022-07-22T02:12:11;18.20;99.90
7822;DHT22;3956;50.558;9.678;2022-07-22T02:14:40;18.20;99.90
7822;DHT22;3956;50.558;9.678;2022-07-22T02:17:08;18.10;99.90
7822;DHT22;3956;50.558;9.678;2022-07-22T02:19:37;18.00;99.90
7822;DHT22;3956;50.558;9.678;2022-07-22T02:22:06;18.00;99.90
7822;DHT22;3956;50.558;9.678;2022-07-22T02:24:35;18.00;99.90
7822;DHT22;3956;50.558;9.678;2022-07-22T02:27:06;18.10;99.90
7822;DHT22;3956;50.558;9.678;2022-07-22T02:29:35;17.70;99.90
7822;DHT22;3956;50.558;9.678;2022-07-22T02:32:05;17.80;99.90
7822;DHT22;3956;50.558;9.678;2022-07-22T02:34:34;17.70;99.90
7822;DHT22;3956;50.558;9.678;2022-07-22T02:37:02;17.60;99.90
7822;DHT22;3956;50.558;9.678;2022-07-22T02:39:32;17.70;99.90
7822;DHT22;3956;50.558;9.678;2022-07-22T02:42:00;17.80;99.90
7822;DHT22;3956;50.558;9.678;2022-07-22T02:44:30;17.90;99.90
7822;DHT22;3956;50.558;9.678;2022-07-22T02:47:02;17.80;99.90
7822;DHT22;3956;50.558;9.678;2022-07-22T02:49:35;17.70;99.90
7822;DHT22;3956;50.558;9.678;2022-07-22T02:52:04;17.70;99.90
7822;DHT22;3956;50.558;9.678;2022-07-22T02:54:41;17.60;99.90
7822;DHT22;3956;50.558;9.678;2022-07-22T02:57:11;17.80;99.90
7822;DHT22;3956;50.558;9.678;2022-07-22T02:59:45;17.90;99.90
7822;DHT22;3956;50.558;9.678;2022-07-22T03:02:13;18.00;99.90
7822;DHT22;3956;50.558;9.678;2022-07-22T03:04:42;18.00;99.90
7822;DHT22;3956;50.558;9.678;2022-07-22T03:07:11;17.80;99.90
7822;DHT22;3956;50.558;9.678;2022-07-22T03:09:40;17.80;99.90
7822;DHT22;3956;50.558;9.678;2022-07-22T03:12:12;17.80;99.90
7822;DHT22;3956;50.558;9.678;2022-07-22T03:14:41;17.80;99.90
7822;DHT22;3956;50.558;9.678;2022-07-22T03:17:11;17.70;99.90
7822;DHT22;3956;50.558;9.678;2022-07-22T03:19:41;17.70;99.90
7822;DHT22;3956;50.558;9.678;2022-07-22T03:22:11;17.70;99.90
7822;DHT22;3956;50.558;9.678;2022-07-22T03:24:41;17.80;99.90
7822;DHT22;3956;50.558;9.678;2022-07-22T03:27:09;17.80;99.90
7822;DHT22;3956;50.558;9.678;2022-07-22T03:29:40;17.70;99.90
7822;DHT22;3956;50.558;9.678;2022-07-22T03:36:14;17.60;99.90
7822;DHT22;3956;50.558;9.678;2022-07-22T03:38:44;17.50;99.90
7822;DHT22;3956;50.558;9.678;2022-07-22T03:41:31;17.60;99.90
7822;DHT22;3956;50.558;9.678;2022-07-22T03:44:02;17.60;99.90
7822;DHT22;3956;50.558;9.678;2022-07-22T03:46:32;17.40;99.90
7822;DHT22;3956;50.558;9.678;2022-07-22T03:49:04;17.40;99.90
7822;DHT22;3956;50.558;9.678;2022-07-22T03:51:39;17.50;99.90
7822;DHT22;3956;50.558;9.678;2022-07-22T03:54:23;17.60;99.90
7822;DHT22;3956;50.558;9.678;2022-07-22T03:56:58;17.60;99.90
7822;DHT22;3956;50.558;9.678;2022-07-22T03:59:26;17.50;99.90
7822;DHT22;3956;50.558;9.678;2022-07-22T04:01:58;17.50;99.90
7822;DHT22;3956;50.558;9.678;2022-07-22T04:04:30;17.60;99.90
7822;DHT22;3956;50.558;9.678;2022-07-22T04:07:00;17.70;99.90
7822;DHT22;3956;50.558;9.678;2022-07-22T04:09:29;17.70;99.90
7822;DHT22;3956;50.558;9.678;2022-07-22T04:12:08;17.80;99.90
7822;DHT22;3956;50.558;9.678;2022-07-22T04:14:41;17.70;99.90
7822;DHT22;3956;50.558;9.678;2022-07-22T04:17:18;17.90;99.90
7822;DHT22;3956;50.558;9.678;2022-07-22T04:20:16;17.80;99.90
7822;DHT22;3956;50.558;9.678;2022-07-22T04:23:13;17.90;99.90
7822;DHT22;3956;50.558;9.678;2022-07-22T04:25:49;17.90;99.90
7822;DHT22;3956;50.558;9.678;2022-07-22T04:28:18;18.00;99.90
7822;DHT22;3956;50.558;9.678;2022-07-22T04:30:47;17.90;99.90
7822;DHT22;3956;50.558;9.678;2022-07-22T04:33:16;17.90;99.90
7822;DHT22;3956;50.558;9.678;2022-07-22T04:35:44;18.10;99.90
7822;DHT22;3956;50.558;9.678;2022-07-22T04:38:15;17.90;99.90
7822;DHT22;3956;50.558;9.678;2022-07-22T04:40:44;18.00;99.90
7822;DHT22;3956;50.558;9.678;2022-07-22T04:43:20;18.10;99.90
7822;DHT22;3956;50.558;9.678;2022-07-22T04:45:55;18.20;99.90
7822;DHT22;3956;50.558;9.678;2022-07-22T04:49:08;18.20;99.90
7822;DHT22;3956;50.558;9.678;2022-07-22T04:52:08;18.30;99.90
7822;DHT22;3956;50.558;9.678;2022-07-22T04:54:47;18.10;99.90
7822;DHT22;3956;50.558;9.678;2022-07-22T04:57:17;17.90;99.90
7822;DHT22;3956;50.558;9.678;2022-07-22T04:59:50;17.80;99.90
7822;DHT22;3956;50.558;9.678;2022-07-22T05:03:00;17.90;99.90
7822;DHT22;3956;50.558;9.678;2022-07-22T05:05:28;18.00;99.90
7822;DHT22;3956;50.558;9.678;2022-07-22T05:07:56;18.10;99.90
7822;DHT22;3956;50.558;9.678;2022-07-22T05:10:44;18.20;99.90
7822;DHT22;3956;50.558;9.678;2022-07-22T05:13:23;18.10;99.90
7822;DHT22;3956;50.558;9.678;2022-07-22T05:15:52;18.10;99.90
7822;DHT22;3956;50.558;9.678;2022-07-22T05:18:21;18.20;99.90
7822;DHT22;3956;50.558;9.678;2022-07-22T05:20:51;18.20;99.90
7822;DHT22;3956;50.558;9.678;2022-07-22T05:23:30;18.30;99.90
7822;DHT22;3956;50.558;9.678;2022-07-22T05:26:09;18.40;99.90
7822;DHT22;3956;50.558;9.678;2022-07-22T05:28:38;18.30;99.90
7822;DHT22;3956;50.558;9.678;2022-07-22T05:31:08;18.30;99.90
7822;DHT22;3956;50.558;9.678;2022-07-22T05:33:51;18.30;99.90
7822;DHT22;3956;50.558;9.678;2022-07-22T05:37:17;18.50;99.90
7822;DHT22;3956;50.558;9.678;2022-07-22T05:40:34;18.60;99.90
7822;DHT22;3956;50.558;9.678;2022-07-22T05:47:57;18.60;99.90
7822;DHT22;3956;50.558;9.678;2022-07-22T05:50:35;18.50;99.90
7822;DHT22;3956;50.558;9.678;2022-07-22T05:53:39;18.70;99.90
7822;DHT22;3956;50.558;9.678;2022-07-22T06:00:19;18.70;99.90
7822;DHT22;3956;50.558;9.678;2022-07-22T06:06:52;19.00;99.90
7822;DHT22;3956;50.558;9.678;2022-07-22T06:09:21;19.10;99.90
7822;DHT22;3956;50.558;9.678;2022-07-22T06:11:49;19.00;99.90
7822;DHT22;3956;50.558;9.678;2022-07-22T06:14:19;19.10;99.90
7822;DHT22;3956;50.558;9.678;2022-07-22T06:16:53;19.30;99.90
7822;DHT22;3956;50.558;9.678;2022-07-22T06:19:29;19.10;99.90
7822;DHT22;3956;50.558;9.678;2022-07-22T06:22:11;19.40;99.90
7822;DHT22;3956;50.558;9.678;2022-07-22T06:24:52;19.50;99.90
7822;DHT22;3956;50.558;9.678;2022-07-22T06:27:23;19.60;99.90
7822;DHT22;3956;50.558;9.678;2022-07-22T06:29:57;19.60;99.90
7822;DHT22;3956;50.558;9.678;2022-07-22T06:32:28;19.60;99.90
7822;DHT22;3956;50.558;9.678;2022-07-22T06:35:05;19.40;99.90
7822;DHT22;3956;50.558;9.678;2022-07-22T06:37:51;19.20;99.90
7822;DHT22;3956;50.558;9.678;2022-07-22T06:40:46;19.60;99.90
7822;DHT22;3956;50.558;9.678;2022-07-22T06:43:24;19.40;99.90
7822;DHT22;3956;50.558;9.678;2022-07-22T06:46:03;19.80;99.90
7822;DHT22;3956;50.558;9.678;2022-07-22T06:48:53;20.20;99.90
7822;DHT22;3956;50.558;9.678;2022-07-22T06:51:27;20.50;99.90
7822;DHT22;3956;50.558;9.678;2022-07-22T06:53:57;20.50;99.90
7822;DHT22;3956;50.558;9.678;2022-07-22T06:56:32;20.40;99.90
7822;DHT22;3956;50.558;9.678;2022-07-22T06:59:00;20.80;99.90
7822;DHT22;3956;50.558;9.678;2022-07-22T07:04:00;20.70;99.90
7822;DHT22;3956;50.558;9.678;2022-07-22T07:06:35;20.60;99.90
7822;DHT22;3956;50.558;9.678;2022-07-22T07:12:46;20.20;99.90
7822;DHT22;3956;50.558;9.678;2022-07-22T07:15:15;21.30;99.90
7822;DHT22;3956;50.558;9.678;2022-07-22T07:17:55;20.80;99.90
7822;DHT22;3956;50.558;9.678;2022-07-22T07:20:24;20.90;99.90
7822;DHT22;3956;50.558;9.678;2022-07-22T07:23:02;20.50;99.90
7822;DHT22;3956;50.558;9.678;2022-07-22T07:25:38;21.10;99.90
7822;DHT22;3956;50.558;9.678;2022-07-22T07:28:47;21.20;99.90
7822;DHT22;3956;50.558;9.678;2022-07-22T07:31:32;22.80;99.90
7822;DHT22;3956;50.558;9.678;2022-07-22T07:34:09;25.50;99.90
7822;DHT22;3956;50.558;9.678;2022-07-22T07:37:11;26.00;99.90
7822;DHT22;3956;50.558;9.678;2022-07-22T07:41:10;24.80;99.90
7822;DHT22;3956;50.558;9.678;2022-07-22T07:44:02;23.40;99.90
7822;DHT22;3956;50.558;9.678;2022-07-22T07:46:56;23.60;99.90
7822;DHT22;3956;50.558;9.678;2022-07-22T07:49:25;22.80;99.90
7822;DHT22;3956;50.558;9.678;2022-07-22T07:52:04;22.40;99.90
7822;DHT22;3956;50.558;9.678;2022-07-22T07:54:50;21.60;99.90
7822;DHT22;3956;50.558;9.678;2022-07-22T07:57:38;21.60;99.90
7822;DHT22;3956;50.558;9.678;2022-07-22T08:00:10;21.40;99.90
7822;DHT22;3956;50.558;9.678;2022-07-22T08:02:54;21.10;99.90
7822;DHT22;3956;50.558;9.678;2022-07-22T08:06:11;21.10;99.90
7822;DHT22;3956;50.558;9.678;2022-07-22T08:09:09;20.50;99.90
7822;DHT22;3956;50.558;9.678;2022-07-22T08:11:41;20.70;99.90
7822;DHT22;3956;50.558;9.678;2022-07-22T08:14:34;21.00;99.90
7822;DHT22;3956;50.558;9.678;2022-07-22T08:17:56;21.30;99.90
7822;DHT22;3956;50.558;9.678;2022-07-22T08:20:27;21.30;99.90
7822;DHT22;3956;50.558;9.678;2022-07-22T08:22:56;21.20;99.90
7822;DHT22;3956;50.558;9.678;2022-07-22T08:25:25;24.20;99.90
7822;DHT22;3956;50.558;9.678;2022-07-22T08:27:55;25.80;99.90
7822;DHT22;3956;50.558;9.678;2022-07-22T08:30:57;25.60;99.90
7822;DHT22;3956;50.558;9.678;2022-07-22T08:37:37;24.30;99.90
7822;DHT22;3956;50.558;9.678;2022-07-22T08:40:18;23.80;99.90
7822;DHT22;3956;50.558;9.678;2022-07-22T08:43:41;26.70;99.90
7822;DHT22;3956;50.558;9.678;2022-07-22T08:46:46;24.30;99.90
7822;DHT22;3956;50.558;9.678;2022-07-22T08:49:44;23.80;99.90
7822;DHT22;3956;50.558;9.678;2022-07-22T08:52:56;26.30;99.90
7822;DHT22;3956;50.558;9.678;2022-07-22T08:55:34;26.00;99.90
7822;DHT22;3956;50.558;9.678;2022-07-22T08:58:07;27.40;99.90
7822;DHT22;3956;50.558;9.678;2022-07-22T09:00:42;27.40;99.90
7822;DHT22;3956;50.558;9.678;2022-07-22T09:03:23;25.60;99.90
7822;DHT22;3956;50.558;9.678;2022-07-22T09:06:58;24.30;99.90
7822;DHT22;3956;50.558;9.678;2022-07-22T09:14:04;27.00;99.90
7822;DHT22;3956;50.558;9.678;2022-07-22T09:16:52;28.80;99.90
7822;DHT22;3956;50.558;9.678;2022-07-22T09:19:36;27.60;99.90
7822;DHT22;3956;50.558;9.678;2022-07-22T09:22:35;26.10;99.90
7822;DHT22;3956;50.558;9.678;2022-07-22T09:25:25;27.00;99.90
7822;DHT22;3956;50.558;9.678;2022-07-22T09:28:13;27.80;99.90
7822;DHT22;3956;50.558;9.678;2022-07-22T09:31:01;26.80;99.90
7822;DHT22;3956;50.558;9.678;2022-07-22T09:33:47;26.80;99.90
7822;DHT22;3956;50.558;9.678;2022-07-22T09:40:24;28.10;99.90
7822;DHT22;3956;50.558;9.678;2022-07-22T09:43:21;28.30;99.90
7822;DHT22;3956;50.558;9.678;2022-07-22T09:45:55;27.70;99.90
7822;DHT22;3956;50.558;9.678;2022-07-22T09:48:27;26.90;99.90
7822;DHT22;3956;50.558;9.678;2022-07-22T09:51:19;25.70;99.90
7822;DHT22;3956;50.558;9.678;2022-07-22T09:53:51;25.00;99.90
7822;DHT22;3956;50.558;9.678;2022-07-22T09:56:26;23.60;99.90
7822;DHT22;3956;50.558;9.678;2022-07-22T10:02:15;23.80;99.90
7822;DHT22;3956;50.558;9.678;2022-07-22T10:05:13;24.10;99.90
7822;DHT22;3956;50.558;9.678;2022-07-22T10:07:46;24.90;99.90
7822;DHT22;3956;50.558;9.678;2022-07-22T10:10:23;25.20;99.90
7822;DHT22;3956;50.558;9.678;2022-07-22T10:13:39;24.90;99.90
7822;DHT22;3956;50.558;9.678;2022-07-22T10:16:41;24.90;99.90
7822;DHT22;3956;50.558;9.678;2022-07-22T10:19:37;24.70;99.90
7822;DHT22;3956;50.558;9.678;2022-07-22T10:25:13;24.30;99.90
7822;DHT22;3956;50.558;9.678;2022-07-22T10:27:50;24.40;99.90
7822;DHT22;3956;50.558;9.678;2022-07-22T10:30:22;24.20;99.90
7822;DHT22;3956;50.558;9.678;2022-07-22T10:33:20;24.70;99.90
7822;DHT22;3956;50.558;9.678;2022-07-22T10:36:09;24.50;99.90
7822;DHT22;3956;50.558;9.678;2022-07-22T10:39:04;24.60;99.90
7822;DHT22;3956;50.558;9.678;2022-07-22T10:42:35;24.70;99.90
7822;DHT22;3956;50.558;9.678;2022-07-22T10:46:00;24.70;99.90
7822;DHT22;3956;50.558;9.678;2022-07-22T10:49:07;24.40;99.90
7822;DHT22;3956;50.558;9.678;2022-07-22T10:52:08;24.70;99.90
7822;DHT22;3956;50.558;9.678;2022-07-22T10:55:16;24.70;99.90
7822;DHT22;3956;50.558;9.678;2022-07-22T10:58:50;25.30;99.90
7822;DHT22;3956;50.558;9.678;2022-07-22T11:01:52;25.50;99.90
7822;DHT22;3956;50.558;9.678;2022-07-22T11:04:26;25.60;99.90
7822;DHT22;3956;50.558;9.678;2022-07-22T11:07:10;26.20;99.90
7822;DHT22;3956;50.558;9.678;2022-07-22T11:12:56;25.80;99.90
7822;DHT22;3956;50.558;9.678;2022-07-22T11:15:38;25.40;99.90
7822;DHT22;3956;50.558;9.678;2022-07-22T11:19:19;26.00;99.90
7822;DHT22;3956;50.558;9.678;2022-07-22T11:22:20;26.20;99.90
7822;DHT22;3956;50.558;9.678;2022-07-22T11:25:26;25.70;99.90
7822;DHT22;3956;50.558;9.678;2022-07-22T11:28:13;26.20;99.90
7822;DHT22;3956;50.558;9.678;2022-07-22T11:31:19;26.40;99.90
7822;DHT22;3956;50.558;9.678;2022-07-22T11:34:29;26.50;99.90
7822;DHT22;3956;50.558;9.678;2022-07-22T11:37:59;26.50;99.90
7822;DHT22;3956;50.558;9.678;2022-07-22T11:40:56;26.20;99.90
7822;DHT22;3956;50.558;9.678;2022-07-22T11:44:00;25.60;99.90
7822;DHT22;3956;50.558;9.678;2022-07-22T11:46:57;25.70;99.90
7822;DHT22;3956;50.558;9.678;2022-07-22T11:49:31;26.10;99.90
7822;DHT22;3956;50.558;9.678;2022-07-22T11:52:11;26.40;99.90
7822;DHT22;3956;50.558;9.678;2022-07-22T11:54:46;25.90;99.90
7822;DHT22;3956;50.558;9.678;2022-07-22T11:57:24;26.20;99.90
7822;DHT22;3956;50.558;9.678;2022-07-22T12:00:09;25.80;99.90
7822;DHT22;3956;50.558;9.678;2022-07-22T12:03:08;25.90;99.90
7822;DHT22;3956;50.558;9.678;2022-07-22T12:05:49;25.60;99.90
7822;DHT22;3956;50.558;9.678;2022-07-22T12:08:21;26.10;99.90
7822;DHT22;3956;50.558;9.678;2022-07-22T12:22:11;26.40;99.90
7822;DHT22;3956;50.558;9.678;2022-07-22T12:24:57;26.70;99.90
7822;DHT22;3956;50.558;9.678;2022-07-22T12:28:02;26.70;99.90
7822;DHT22;3956;50.558;9.678;2022-07-22T12:30:31;27.00;99.90
7822;DHT22;3956;50.558;9.678;2022-07-22T12:32:59;27.00;99.90
7822;DHT22;3956;50.558;9.678;2022-07-22T12:35:33;26.80;99.90
7822;DHT22;3956;50.558;9.678;2022-07-22T12:38:18;26.60;99.90
7822;DHT22;3956;50.558;9.678;2022-07-22T12:41:22;26.70;99.90
7822;DHT22;3956;50.558;9.678;2022-07-22T12:44:17;27.00;99.90
7822;DHT22;3956;50.558;9.678;2022-07-22T12:46:55;27.10;99.90
7822;DHT22;3956;50.558;9.678;2022-07-22T12:49:55;26.90;99.90
7822;DHT22;3956;50.558;9.678;2022-07-22T12:57:18;27.60;99.90
7822;DHT22;3956;50.558;9.678;2022-07-22T13:00:21;27.90;99.90
7822;DHT22;3956;50.558;9.678;2022-07-22T13:03:17;28.40;99.90
7822;DHT22;3956;50.558;9.678;2022-07-22T13:06:23;28.20;99.90
7822;DHT22;3956;50.558;9.678;2022-07-22T13:15:12;28.20;99.90
7822;DHT22;3956;50.558;9.678;2022-07-22T13:18:21;28.00;99.90
7822;DHT22;3956;50.558;9.678;2022-07-22T13:21:37;28.30;99.90
7822;DHT22;3956;50.558;9.678;2022-07-22T13:24:43;28.80;99.90
7822;DHT22;3956;50.558;9.678;2022-07-22T13:28:08;28.30;99.90
7822;DHT22;3956;50.558;9.678;2022-07-22T13:31:18;28.00;99.90
7822;DHT22;3956;50.558;9.678;2022-07-22T13:34:35;28.10;99.90
7822;DHT22;3956;50.558;9.678;2022-07-22T13:37:50;28.10;99.90
7822;DHT22;3956;50.558;9.678;2022-07-22T13:40:44;28.00;99.90
7822;DHT22;3956;50.558;9.678;2022-07-22T13:43:31;27.40;99.90
7822;DHT22;3956;50.558;9.678;2022-07-22T13:46:05;28.00;99.90
7822;DHT22;3956;50.558;9.678;2022-07-22T13:48:35;28.30;99.90
7822;DHT22;3956;50.558;9.678;2022-07-22T13:51:05;28.30;99.90
7822;DHT22;3956;50.558;9.678;2022-07-22T13:53:39;28.10;99.90
7822;DHT22;3956;50.558;9.678;2022-07-22T13:56:17;27.80;99.90
7822;DHT22;3956;50.558;9.678;2022-07-22T13:59:09;28.00;99.90
7822;DHT22;3956;50.558;9.678;2022-07-22T14:01:39;28.30;99.90
7822;DHT22;3956;50.558;9.678;2022-07-22T14:04:24;28.00;99.90
7822;DHT22;3956;50.558;9.678;2022-07-22T14:11:04;28.20;99.90
7822;DHT22;3956;50.558;9.678;2022-07-22T14:14:31;28.10;99.90
7822;DHT22;3956;50.558;9.678;2022-07-22T14:17:31;27.90;99.90
7822;DHT22;3956;50.558;9.678;2022-07-22T14:20:09;28.30;99.90
7822;DHT22;3956;50.558;9.678;2022-07-22T14:22:44;28.40;99.90
7822;DHT22;3956;50.558;9.678;2022-07-22T14:25:20;28.40;99.90
7822;DHT22;3956;50.558;9.678;2022-07-22T14:28:13;29.10;99.90
7822;DHT22;3956;50.558;9.678;2022-07-22T14:31:27;29.50;99.90
7822;DHT22;3956;50.558;9.678;2022-07-22T14:34:03;29.50;99.90
7822;DHT22;3956;50.558;9.678;2022-07-22T14:40:03;28.90;99.90
7822;DHT22;3956;50.558;9.678;2022-07-22T14:43:32;28.90;99.90
7822;DHT22;3956;50.558;9.678;2022-07-22T14:46:33;29.00;99.90
7822;DHT22;3956;50.558;9.678;2022-07-22T14:49:13;29.00;99.90
7822;DHT22;3956;50.558;9.678;2022-07-22T14:52:36;29.10;99.90
7822;DHT22;3956;50.558;9.678;2022-07-22T14:56:07;29.20;99.90
7822;DHT22;3956;50.558;9.678;2022-07-22T14:59:12;29.30;99.90
7822;DHT22;3956;50.558;9.678;2022-07-22T15:01:54;29.00;99.90
7822;DHT22;3956;50.558;9.678;2022-07-22T15:05:00;28.70;99.90
7822;DHT22;3956;50.558;9.678;2022-07-22T15:08:16;29.00;99.90
7822;DHT22;3956;50.558;9.678;2022-07-22T15:10:55;28.70;99.90
7822;DHT22;3956;50.558;9.678;2022-07-22T15:13:59;28.70;99.90
7822;DHT22;3956;50.558;9.678;2022-07-22T15:17:16;28.50;99.90
7822;DHT22;3956;50.558;9.678;2022-07-22T15:20:32;28.50;99.90
7822;DHT22;3956;50.558;9.678;2022-07-22T15:27:08;28.60;99.90
7822;DHT22;3956;50.558;9.678;2022-07-22T15:30:10;28.30;99.90
7822;DHT22;3956;50.558;9.678;2022-07-22T15:36:31;28.00;99.90
7822;DHT22;3956;50.558;9.678;2022-07-22T15:39:00;28.40;99.90
7822;DHT22;3956;50.558;9.678;2022-07-22T15:48:57;28.30;99.90
7822;DHT22;3956;50.558;9.678;2022-07-22T15:52:07;28.60;99.90
7822;DHT22;3956;50.558;9.678;2022-07-22T15:54:45;28.60;99.90
7822;DHT22;3956;50.558;9.678;2022-07-22T15:57:29;28.50;99.90
7822;DHT22;3956;50.558;9.678;2022-07-22T16:00:21;28.90;99.90
7822;DHT22;3956;50.558;9.678;2022-07-22T16:03:32;29.20;99.90
7822;DHT22;3956;50.558;9.678;2022-07-22T16:06:58;29.00;99.90
7822;DHT22;3956;50.558;9.678;2022-07-22T16:13:19;28.40;99.90
7822;DHT22;3956;50.558;9.678;2022-07-22T16:15:54;28.70;99.90
7822;DHT22;3956;50.558;9.678;2022-07-22T16:18:22;28.80;99.90
7822;DHT22;3956;50.558;9.678;2022-07-22T16:21:04;28.60;99.90
7822;DHT22;3956;50.558;9.678;2022-07-22T16:24:24;28.70;99.90
7822;DHT22;3956;50.558;9.678;2022-07-22T16:26:58;28.90;99.90
7822;DHT22;3956;50.558;9.678;2022-07-22T16:31:00;28.60;99.90
7822;DHT22;3956;50.558;9.678;2022-07-22T16:33:55;28.50;99.90
7822;DHT22;3956;50.558;9.678;2022-07-22T16:36:29;28.60;99.90
7822;DHT22;3956;50.558;9.678;2022-07-22T16:39:25;28.80;99.90
7822;DHT22;3956;50.558;9.678;2022-07-22T16:42:46;28.80;99.90
7822;DHT22;3956;50.558;9.678;2022-07-22T16:45:26;28.50;99.90
7822;DHT22;3956;50.558;9.678;2022-07-22T16:48:31;28.60;99.90
7822;DHT22;3956;50.558;9.678;2022-07-22T16:51:10;28.50;99.90
7822;DHT22;3956;50.558;9.678;2022-07-22T16:53:53;28.50;99.90
7822;DHT22;3956;50.558;9.678;2022-07-22T16:56:57;28.60;99.90
7822;DHT22;3956;50.558;9.678;2022-07-22T16:59:27;28.50;99.90
7822;DHT22;3956;50.558;9.678;2022-07-22T17:02:09;28.40;99.90
7822;DHT22;3956;50.558;9.678;2022-07-22T17:05:26;28.40;99.90
7822;DHT22;3956;50.558;9.678;2022-07-22T17:08:32;28.50;99.90
7822;DHT22;3956;50.558;9.678;2022-07-22T17:11:14;28.40;99.90
7822;DHT22;3956;50.558;9.678;2022-07-22T17:14:11;28.60;99.90
7822;DHT22;3956;50.558;9.678;2022-07-22T17:17:24;28.50;99.90
7822;DHT22;3956;50.558;9.678;2022-07-22T17:20:39;28.50;99.90
7822;DHT22;3956;50.558;9.678;2022-07-22T17:23:14;28.40;99.90
7822;DHT22;3956;50.558;9.678;2022-07-22T17:25:58;28.20;99.90
7822;DHT22;3956;50.558;9.678;2022-07-22T17:28:58;28.20;99.90
7822;DHT22;3956;50.558;9.678;2022-07-22T17:31:45;28.20;99.90
7822;DHT22;3956;50.558;9.678;2022-07-22T17:34:36;28.00;99.90
7822;DHT22;3956;50.558;9.678;2022-07-22T17:37:53;28.00;99.90
7822;DHT22;3956;50.558;9.678;2022-07-22T17:40:47;27.80;99.90
7822;DHT22;3956;50.558;9.678;2022-07-22T17:43:41;27.80;99.90
7822;DHT22;3956;50.558;9.678;2022-07-22T17:46:25;27.50;99.90
7822;DHT22;3956;50.558;9.678;2022-07-22T17:48:57;27.50;99.90
7822;DHT22;3956;50.558;9.678;2022-07-22T17:51:36;27.60;99.90
7822;DHT22;3956;50.558;9.678;2022-07-22T17:54:42;27.40;99.90
7822;DHT22;3956;50.558;9.678;2022-07-22T17:58:10;27.40;99.90
7822;DHT22;3956;50.558;9.678;2022-07-22T18:00:54;27.30;99.90
7822;DHT22;3956;50.558;9.678;2022-07-22T18:03:46;27.20;99.90
7822;DHT22;3956;50.558;9.678;2022-07-22T18:06:23;27.10;99.90
7822;DHT22;3956;50.558;9.678;2022-07-22T18:08:59;27.00;99.90
7822;DHT22;3956;50.558;9.678;2022-07-22T18:11:44;26.80;99.90
7822;DHT22;3956;50.558;9.678;2022-07-22T18:14:14;26.90;99.90
7822;DHT22;3956;50.558;9.678;2022-07-22T18:16:44;26.90;99.90
7822;DHT22;3956;50.558;9.678;2022-07-22T18:19:17;26.80;99.90
7822;DHT22;3956;50.558;9.678;2022-07-22T18:22:25;26.70;99.90
7822;DHT22;3956;50.558;9.678;2022-07-22T18:25:45;26.60;99.90
7822;DHT22;3956;50.558;9.678;2022-07-22T18:28:31;26.50;99.90
7822;DHT22;3956;50.558;9.678;2022-07-22T18:30:59;26.40;99.90
7822;DHT22;3956;50.558;9.678;2022-07-22T18:33:28;26.30;99.90
7822;DHT22;3956;50.558;9.678;2022-07-22T18:36:11;26.20;99.90
7822;DHT22;3956;50.558;9.678;2022-07-22T18:39:12;26.10;99.90
7822;DHT22;3956;50.558;9.678;2022-07-22T18:50:08;25.80;99.90
7822;DHT22;3956;50.558;9.678;2022-07-22T18:52:36;25.60;99.90
7822;DHT22;3956;50.558;9.678;2022-07-22T18:55:07;25.50;99.90
7822;DHT22;3956;50.558;9.678;2022-07-22T18:57:36;25.40;99.90
7822;DHT22;3956;50.558;9.678;2022-07-22T19:00:08;25.40;99.90
7822;DHT22;3956;50.558;9.678;2022-07-22T19:02:37;25.30;99.90
7822;DHT22;3956;50.558;9.678;2022-07-22T19:05:07;25.30;99.90
7822;DHT22;3956;50.558;9.678;2022-07-22T19:07:36;25.20;99.90
7822;DHT22;3956;50.558;9.678;2022-07-22T19:10:24;25.10;99.90
7822;DHT22;3956;50.558;9.678;2022-07-22T19:13:10;25.00;99.90
7822;DHT22;3956;50.558;9.678;2022-07-22T19:15:48;24.90;99.90
7822;DHT22;3956;50.558;9.678;2022-07-22T19:18:24;24.80;99.90
7822;DHT22;3956;50.558;9.678;2022-07-22T19:20:58;24.70;99.90
7822;DHT22;3956;50.558;9.678;2022-07-22T19:23:46;24.60;99.90
7822;DHT22;3956;50.558;9.678;2022-07-22T19:26:19;24.40;99.90
7822;DHT22;3956;50.558;9.678;2022-07-22T19:28:50;24.40;99.90
7822;DHT22;3956;50.558;9.678;2022-07-22T19:31:21;24.30;99.90